Time;durP1;ratioP1;P1;durP2;ratioP2;P2;SDS_P1;SDS_P2;PMS_P1;PMS_P2;Temp;Humidity;BMP_temperature;BMP_pressure;BME280_temperature;BME280_humidity;BME280_pressure;Samples;Min_cycle;Max_cycle;Signal;HPM_P1;HPM_P2
2023/10/17 00:01:13;;;;;;;6.37;5.07;;;;;;;7.69;86.34;101494.69;5073777;28;20216;-73
2023/10/17 00:03:43;;;;;;;5.80;5.27;;;;;;;7.68;86.49;101498.31;5073470;28;20190;-74
2023/10/17 00:06:16;;;;;;;5.93;4.90;;;;;;;7.61;86.40;101497.97;5073928;28;20652;-74
2023/10/17 00:08:50;;;;;;;7.07;5.37;;;;;;;7.59;85.83;101495.44;5073725;28;20189;-73
2023/10/17 00:11:21;;;;;;;6.50;5.50;;;;;;;7.51;86.22;101497.84;5073725;28;20189;-73
2023/10/17 00:14:07;;;;;;;6.27;5.67;;;;;;;7.56;86.56;101495.69;5073877;28;20213;-73
2023/10/17 00:16:37;;;;;;;5.73;4.67;;;;;;;7.60;86.18;101494.44;5073590;28;20189;-74
2023/10/17 00:19:08;;;;;;;6.03;5.03;;;;;;;7.57;86.65;101501.84;5073558;28;20205;-74
2023/10/17 00:21:38;;;;;;;6.33;4.60;;;;;;;7.61;86.11;101509.47;5073275;28;20239;-74
2023/10/17 00:24:09;;;;;;;5.80;5.20;;;;;;;7.55;85.90;101504.63;5073474;28;20206;-73
2023/10/17 00:26:39;;;;;;;8.57;5.83;;;;;;;7.42;84.31;101503.91;5073496;28;20229;-73
2023/10/17 00:29:09;;;;;;;6.40;5.10;;;;;;;7.41;85.63;101502.22;5073452;28;20214;-73
2023/10/17 00:31:38;;;;;;;6.10;5.50;;;;;;;7.30;83.80;101501.34;5073349;28;20209;-73
2023/10/17 00:34:15;;;;;;;6.27;5.33;;;;;;;7.22;84.70;101499.31;5073002;28;20618;-73
2023/10/17 00:36:50;;;;;;;6.60;5.93;;;;;;;7.12;85.04;101501.81;5073416;28;20196;-73
2023/10/17 00:39:29;;;;;;;7.30;5.33;;;;;;;7.10;85.62;101498.44;5073061;28;20567;-73
2023/10/17 00:42:27;;;;;;;5.93;5.33;;;;;;;7.17;84.94;101493.50;5073641;28;20193;-73
2023/10/17 00:44:58;;;;;;;8.03;5.30;;;;;;;7.16;83.99;101494.44;5073374;28;20683;-73
2023/10/17 00:47:27;;;;;;;7.37;5.57;;;;;;;7.00;83.73;101491.28;5073376;28;20186;-73
2023/10/17 00:49:59;;;;;;;7.43;5.47;;;;;;;6.89;84.76;101493.94;5073254;28;20292;-73
2023/10/17 00:52:32;;;;;;;6.37;5.47;;;;;;;6.99;84.87;101486.94;5072986;28;20193;-73
2023/10/17 00:55:04;;;;;;;7.57;5.73;;;;;;;6.98;85.10;101493.25;5073206;28;20225;-73
2023/10/17 00:57:36;;;;;;;7.70;5.63;;;;;;;7.05;84.42;101489.13;5073229;28;20200;-73
2023/10/17 01:00:14;;;;;;;7.53;5.87;;;;;;;7.00;83.55;101480.66;5073164;28;20241;-73
2023/10/17 01:02:46;;;;;;;6.53;5.90;;;;;;;6.98;83.47;101482.59;5072836;28;20639;-73
2023/10/17 01:05:16;;;;;;;7.40;5.80;;;;;;;7.06;84.32;101482.81;5073881;28;20225;-73
2023/10/17 01:07:45;;;;;;;5.83;5.33;;;;;;;7.04;84.08;101484.78;5073139;28;20190;-73
2023/10/17 01:10:16;;;;;;;6.97;5.20;;;;;;;6.97;82.43;101486.22;5073061;28;20225;-73
2023/10/17 01:12:52;;;;;;;8.07;5.40;;;;;;;6.79;83.16;101479.63;5073096;28;20221;-73
2023/10/17 01:15:27;;;;;;;7.80;5.13;;;;;;;6.83;84.24;101489.09;5075311;28;20308;-73
2023/10/17 01:17:57;;;;;;;6.40;5.53;;;;;;;6.87;83.75;101485.22;5076658;28;20193;-73
2023/10/17 01:20:26;;;;;;;7.77;5.60;;;;;;;6.88;83.36;101481.63;5076470;28;20661;-73
2023/10/17 01:22:56;;;;;;;7.60;5.07;;;;;;;6.85;82.74;101479.19;5076955;28;20304;-73
2023/10/17 01:25:29;;;;;;;6.77;5.43;;;;;;;6.83;83.11;101478.44;5077134;28;20232;-73
2023/10/17 01:27:59;;;;;;;6.37;5.60;;;;;;;6.81;83.23;101480.38;5076663;28;20716;-73
2023/10/17 01:30:29;;;;;;;8.07;5.43;;;;;;;6.82;83.24;101482.06;5076951;28;20290;-73
2023/10/17 01:32:59;;;;;;;7.87;5.40;;;;;;;6.79;82.57;101487.63;5076837;28;20224;-74
2023/10/17 01:35:28;;;;;;;5.53;4.90;;;;;;;6.76;82.07;101485.19;5076193;28;20231;-73
2023/10/17 01:37:57;;;;;;;8.43;6.00;;;;;;;6.59;83.81;101475.84;5076486;28;20244;-73
2023/10/17 01:40:27;;;;;;;7.87;5.43;;;;;;;6.54;83.81;101476.19;5076339;28;20316;-73
2023/10/17 01:42:58;;;;;;;6.20;5.60;;;;;;;6.59;84.00;101471.38;5076437;28;20194;-73
2023/10/17 01:45:27;;;;;;;7.33;5.50;;;;;;;6.56;83.79;101474.28;5076249;28;20221;-73
2023/10/17 01:47:58;;;;;;;8.00;5.60;;;;;;;6.54;84.02;101467.38;5076012;28;20738;-73
2023/10/17 01:50:27;;;;;;;8.93;6.77;;;;;;;6.63;84.12;101467.53;5076277;28;20194;-73
2023/10/17 01:52:59;;;;;;;9.07;8.07;;;;;;;6.69;85.52;101468.00;5076253;28;20300;-74
2023/10/17 01:55:29;;;;;;;12.73;8.40;;;;;;;6.78;86.65;101459.34;5076105;28;20232;-73
2023/10/17 01:57:58;;;;;;;40.00;8.97;;;;;;;6.76;87.16;101450.59;5076145;28;20251;-73
2023/10/17 02:00:37;;;;;;;31.00;8.87;;;;;;;6.84;88.02;101454.38;5075750;28;20228;-73
2023/10/17 02:03:06;;;;;;;8.47;6.40;;;;;;;6.81;88.08;101453.78;5076064;28;20284;-73
2023/10/17 02:05:36;;;;;;;13.87;8.50;;;;;;;6.78;87.58;101459.34;5075603;28;20601;-73
2023/10/17 02:08:06;;;;;;;7.67;6.20;;;;;;;6.77;88.63;101460.28;5075967;28;20216;-73
2023/10/17 02:10:36;;;;;;;9.47;7.60;;;;;;;6.76;88.71;101461.25;5075954;28;20196;-73
2023/10/17 02:13:07;;;;;;;9.17;7.43;;;;;;;6.75;89.34;101462.22;5075854;28;20285;-73
2023/10/17 02:15:37;;;;;;;11.77;8.27;;;;;;;6.75;89.50;101462.22;5075437;28;20225;-73
2023/10/17 02:18:14;;;;;;;10.53;7.93;;;;;;;6.67;89.10;101461.97;5075524;28;20648;-73
2023/10/17 02:20:51;;;;;;;9.53;7.90;;;;;;;6.68;89.54;101456.50;5075315;28;20557;-74
2023/10/17 02:23:25;;;;;;;11.70;8.23;;;;;;;6.61;88.87;101469.44;5075714;28;20247;-74
2023/10/17 02:26:00;;;;;;;7.70;6.33;;;;;;;6.68;89.65;101463.69;5075235;28;20312;-73
2023/10/17 02:28:29;;;;;;;8.03;6.90;;;;;;;6.67;90.28;101472.63;5075610;28;20251;-73
2023/10/17 02:30:58;;;;;;;9.10;7.23;;;;;;;6.67;90.00;101462.81;5074987;28;20664;-74
2023/10/17 02:33:28;;;;;;;9.20;6.77;;;;;;;6.64;89.00;101466.53;5075501;28;20194;-73
2023/10/17 02:36:07;;;;;;;9.07;6.53;;;;;;;6.67;89.53;101468.16;5075442;28;20225;-73
2023/10/17 02:38:36;;;;;;;7.70;6.70;;;;;;;6.59;87.87;101465.22;5075658;28;20213;-73
2023/10/17 02:41:08;;;;;;;6.30;5.63;;;;;;;6.64;88.73;101463.88;5074942;28;20767;-74
2023/10/17 02:43:40;;;;;;;6.10;5.43;;;;;;;6.62;88.43;101460.50;5075068;28;20711;-74
2023/10/17 02:46:08;;;;;;;6.27;5.07;;;;;;;6.63;88.44;101464.88;5075279;28;20221;-72
2023/10/17 02:48:39;;;;;;;6.40;5.20;;;;;;;6.66;88.99;101457.59;5075228;28;20288;-73
2023/10/17 02:51:31;;;;;;;6.57;5.27;;;;;;;6.68;88.41;101463.69;5075208;28;20189;-73
2023/10/17 02:54:05;;;;;;;6.63;5.50;;;;;;;6.67;88.81;101452.19;5074946;28;20255;-73
2023/10/17 02:56:37;;;;;;;6.20;5.60;;;;;;;6.61;87.97;101461.47;5074733;28;20540;-73
2023/10/17 02:59:10;;;;;;;6.27;5.67;;;;;;;6.63;88.06;101462.22;5075040;28;20193;-73
2023/10/17 03:01:40;;;;;;;7.37;6.67;;;;;;;6.60;87.09;101467.75;5074578;28;20622;-74
2023/10/17 03:04:12;;;;;;;8.93;7.00;;;;;;;6.66;87.70;101460.25;5074482;28;20216;-73
2023/10/17 03:06:43;;;;;;;8.37;7.50;;;;;;;6.57;87.61;101461.84;5074904;28;20193;-73
2023/10/17 03:09:36;;;;;;;7.93;7.10;;;;;;;6.52;88.02;101464.84;5074789;28;20205;-73
2023/10/17 03:12:17;;;;;;;7.20;6.50;;;;;;;6.53;88.73;101466.53;5074441;28;20277;-73
2023/10/17 03:17:32;;;;;;;8.70;6.50;;;;;;;6.51;88.52;101464.94;5074682;28;20190;-73
2023/10/17 03:20:00;;;;;;;19.43;7.53;;;;;;;6.42;88.73;101463.84;5074713;28;20239;-73
2023/10/17 03:22:28;;;;;;;7.93;6.67;;;;;;;6.49;89.39;101465.06;5074425;28;20320;-73
2023/10/17 03:25:18;;;;;;;6.73;6.03;;;;;;;6.52;88.83;101463.97;5074364;28;20280;-73
2023/10/17 03:27:55;;;;;;;7.13;6.47;;;;;;;6.50;88.53;101458.78;5074117;28;20197;-73
2023/10/17 03:30:24;;;;;;;6.23;5.63;;;;;;;6.39;88.62;101460.56;5074392;28;20217;-73
2023/10/17 03:33:06;;;;;;;7.43;5.70;;;;;;;6.39;88.98;101458.75;5073916;28;20213;-74
2023/10/17 03:35:46;;;;;;;25.70;6.97;;;;;;;6.28;88.67;101458.72;5074071;28;20230;-73
2023/10/17 03:38:15;;;;;;;58.30;7.87;;;;;;;6.24;89.40;101457.22;5073274;28;20189;-73
2023/10/17 03:40:52;;;;;;;7.07;6.37;;;;;;;6.26;89.75;101463.31;5074118;28;20205;-73
2023/10/17 03:43:28;;;;;;;5.97;5.43;;;;;;;6.29;90.36;101456.91;5074077;28;20215;-73
2023/10/17 03:45:58;;;;;;;6.60;6.00;;;;;;;6.28;89.25;101453.38;5073687;28;20232;-73
2023/10/17 03:48:29;;;;;;;7.23;5.37;;;;;;;6.23;89.11;101462.69;5073674;28;20663;-73
2023/10/17 03:51:08;;;;;;;5.00;4.60;;;;;;;6.25;89.01;101466.06;5073987;28;20196;-73
2023/10/17 03:53:42;;;;;;;10.30;5.03;;;;;;;6.21;88.06;101460.13;5073955;28;20193;-73
2023/10/17 03:56:18;;;;;;;40.27;5.70;;;;;;;6.14;87.43;101469.53;5073901;28;20308;-73
2023/10/17 03:58:54;;;;;;;5.53;5.03;;;;;;;6.25;88.61;101472.22;5074012;28;20275;-74
2023/10/17 04:01:24;;;;;;;4.77;4.37;;;;;;;6.22;87.83;101469.81;5073778;28;20284;-74
2023/10/17 04:03:54;;;;;;;4.80;4.40;;;;;;;6.19;87.37;101478.03;5073765;28;20205;-74
2023/10/17 04:06:36;;;;;;;5.03;4.53;;;;;;;6.16;87.45;101478.25;5073401;28;20239;-73
2023/10/17 04:09:17;;;;;;;4.57;4.17;;;;;;;6.20;87.53;101476.22;5073398;28;20280;-73
2023/10/17 04:11:49;;;;;;;4.80;4.40;;;;;;;6.27;87.48;101475.63;5074103;28;20272;-73
2023/10/17 04:14:20;;;;;;;5.97;4.37;;;;;;;6.22;86.61;101477.78;5074001;28;20216;-73
2023/10/17 04:16:49;;;;;;;13.03;5.10;;;;;;;6.20;86.49;101484.19;5074172;28;20186;-73
2023/10/17 04:19:18;;;;;;;5.00;4.50;;;;;;;6.18;87.24;101478.13;5074113;28;20207;-73
2023/10/17 04:21:51;;;;;;;4.73;4.27;;;;;;;6.14;87.55;101474.84;5073901;28;20240;-73
2023/10/17 04:24:29;;;;;;;4.60;4.20;;;;;;;6.14;87.58;101480.16;5073687;28;20256;-73
2023/10/17 04:27:06;;;;;;;4.70;4.30;;;;;;;6.14;87.53;101474.84;5073897;28;20209;-73
2023/10/17 04:29:38;;;;;;;5.03;4.53;;;;;;;6.08;87.15;101478.81;5073223;28;20700;-73
2023/10/17 04:32:13;;;;;;;8.43;5.00;;;;;;;6.03;87.17;101490.72;5073200;28;20205;-73
2023/10/17 04:34:45;;;;;;;5.90;5.30;;;;;;;5.99;87.01;101492.75;5073410;28;20279;-72
2023/10/17 04:37:16;;;;;;;5.30;4.50;;;;;;;5.98;88.25;101480.44;5073699;28;20205;-74
2023/10/17 04:39:49;;;;;;;5.27;4.77;;;;;;;5.96;88.22;101489.47;5073380;28;20193;-74
2023/10/17 04:42:26;;;;;;;36.50;5.77;;;;;;;5.98;87.60;101480.44;5073289;28;20205;-74
2023/10/17 04:45:04;;;;;;;5.40;4.90;;;;;;;5.99;88.40;101484.78;5072910;28;20274;-72
2023/10/17 04:47:32;;;;;;;6.93;5.40;;;;;;;5.98;87.77;101495.53;5073287;28;20194;-73
2023/10/17 04:50:02;;;;;;;5.80;5.20;;;;;;;5.98;88.50;101487.56;5076953;28;20671;-73
2023/10/17 04:52:40;;;;;;;6.70;5.97;;;;;;;5.92;87.81;101490.69;5077367;28;20225;-73
2023/10/17 04:55:18;;;;;;;7.03;5.63;;;;;;;5.88;89.08;101494.53;5076678;28;20776;-71
2023/10/17 04:57:56;;;;;;;7.73;6.43;;;;;;;5.87;88.88;101482.19;5077241;28;20197;-71
2023/10/17 05:00:42;;;;;;;7.23;5.67;;;;;;;5.80;87.53;101494.19;5076858;28;20658;-72
2023/10/17 05:03:26;;;;;;;16.63;6.10;;;;;;;5.68;88.84;101487.97;5076969;28;20220;-72
2023/10/17 05:06:19;;;;;;;6.03;5.43;;;;;;;5.75;88.65;101477.75;5075819;28;20239;-72
2023/10/17 05:09:00;;;;;;;5.83;5.33;;;;;;;5.75;88.39;101480.41;5076640;28;20291;-72
2023/10/17 06:18:27;;;;;;;5.97;5.37;;;;;;;5.45;89.62;101545.38;5075861;28;20251;-73
2023/10/17 06:21:18;;;;;;;23.80;6.30;;;;;;;5.39;89.43;101548.47;5075449;28;20582;-73
2023/10/17 06:26:58;;;;;;;63.07;6.97;;;;;;;5.16;88.58;101540.41;5075364;28;20666;-72
2023/10/17 06:35:13;;;;;;;9.33;5.40;;;;;;;5.11;90.23;101546.88;5074932;28;20225;-73
2023/10/17 06:37:43;;;;;;;12.00;4.90;;;;;;;5.08;90.26;101551.56;5075516;28;20193;-73
2023/10/17 06:40:15;;;;;;;6.23;5.47;;;;;;;5.07;89.96;101557.81;5075461;28;20212;-73
2023/10/17 06:42:50;;;;;;;7.03;6.00;;;;;;;5.14;90.73;101555.59;5075300;28;20220;-74
2023/10/17 06:45:20;;;;;;;25.77;6.63;;;;;;;5.09;90.04;101559.41;5075275;28;20224;-73
2023/10/17 06:47:49;;;;;;;14.53;6.50;;;;;;;5.12;90.41;101558.34;5075324;28;20194;-73
2023/10/17 06:51:15;;;;;;;8.37;5.57;;;;;;;5.12;90.79;101561.00;5075197;28;20263;-72
2023/10/17 06:53:11;;;;;;;8.57;5.93;;;;;;;5.16;90.69;101562.50;5074698;28;20679;-73
2023/10/17 06:55:43;;;;;;;38.77;6.50;;;;;;;5.17;90.13;101566.00;5075072;28;20628;-72
2023/10/17 06:58:14;;;;;;;9.63;4.70;;;;;;;5.21;90.97;101568.31;5075099;28;20193;-74
2023/10/17 07:00:49;;;;;;;33.03;5.90;;;;;;;5.19;90.81;101564.94;5075007;28;20243;-72
2023/10/17 07:03:24;;;;;;;7.50;5.20;;;;;;;5.23;91.21;101568.22;5074882;28;20296;-73
2023/10/17 07:06:03;;;;;;;15.63;5.33;;;;;;;5.24;91.14;101567.28;5075144;28;20256;-72
2023/10/17 07:08:36;;;;;;;9.83;5.70;;;;;;;5.25;91.47;101563.66;5075188;28;20602;-73
2023/10/17 07:11:09;;;;;;;11.53;5.07;;;;;;;5.24;90.56;101561.97;5074632;28;20197;-73
2023/10/17 07:16:48;;;;;;;6.10;5.00;;;;;;;5.18;90.47;101551.75;5061928;28;20584;-73
2023/10/17 07:22:11;;;;;;;52.33;7.10;;;;;;;5.15;90.51;101552.81;5073998;28;20205;-73
2023/10/17 07:24:44;;;;;;;107.87;8.13;;;;;;;5.06;90.73;101548.16;5074397;28;20652;-73
2023/10/17 07:27:19;;;;;;;32.63;7.50;;;;;;;4.97;92.31;101551.44;5074405;28;20538;-74
2023/10/17 07:29:58;;;;;;;15.73;5.70;;;;;;;5.13;92.21;101553.91;5074441;28;20201;-74
2023/10/17 07:32:32;;;;;;;5.93;5.27;;;;;;;5.18;92.23;101549.09;5074044;28;20221;-74
2023/10/17 07:35:05;;;;;;;5.27;4.70;;;;;;;5.21;92.27;101555.03;5074265;28;20224;-73
2023/10/17 07:37:48;;;;;;;5.53;5.03;;;;;;;5.25;91.97;101553.88;5074516;28;20190;-74
2023/10/17 07:40:22;;;;;;;38.20;7.30;;;;;;;5.25;91.72;101556.53;5074283;28;20194;-74
2023/10/17 07:42:55;;;;;;;6.90;5.70;;;;;;;5.28;92.36;101552.81;5074095;28;20220;-73
2023/10/17 07:45:24;;;;;;;8.03;5.23;;;;;;;5.31;92.54;101556.09;5073745;28;20602;-74
2023/10/17 07:47:54;;;;;;;9.80;6.83;;;;;;;5.30;93.39;101558.88;5074287;28;20205;-73
2023/10/17 07:50:25;;;;;;;17.93;6.93;;;;;;;5.25;93.32;101553.88;5073736;28;20564;-73
2023/10/17 07:52:59;;;;;;;40.77;8.20;;;;;;;5.22;92.61;101558.56;5073998;28;20190;-73
2023/10/17 07:55:36;;;;;;;8.00;6.73;;;;;;;5.30;94.07;101551.78;5073854;28;20295;-73
2023/10/17 07:58:17;;;;;;;7.73;6.17;;;;;;;5.31;93.47;101545.50;5073928;28;20189;-73
2023/10/17 08:00:48;;;;;;;38.80;7.27;;;;;;;5.29;93.43;101544.75;5073853;28;20190;-72
2023/10/17 08:03:18;;;;;;;10.47;5.93;;;;;;;5.36;93.60;101546.03;5073799;28;20259;-73
2023/10/17 08:06:04;;;;;;;30.57;7.93;;;;;;;5.27;93.19;101546.69;5073729;28;20283;-73
2023/10/17 08:08:34;;;;;;;7.27;6.33;;;;;;;5.38;94.29;101549.41;5073820;28;20190;-72
2023/10/17 08:11:05;;;;;;;6.17;5.60;;;;;;;5.34;95.70;101550.59;5073774;28;20229;-72
2023/10/17 08:13:35;;;;;;;20.30;7.13;;;;;;;5.34;94.73;101555.88;5073732;28;20220;-72
2023/10/17 08:16:07;;;;;;;10.73;6.53;;;;;;;5.27;96.04;101557.31;5073601;28;20666;-72
2023/10/17 08:18:41;;;;;;;11.17;6.60;;;;;;;5.32;95.87;101560.47;5073718;28;20274;-73
2023/10/17 08:23:57;;;;;;;7.00;6.30;;;;;;;5.44;95.56;101556.13;5073247;28;20216;-73
2023/10/17 08:26:29;;;;;;;17.67;7.03;;;;;;;5.47;95.16;101550.59;5073506;28;20320;-72
2023/10/17 08:29:08;;;;;;;18.20;6.60;;;;;;;5.49;95.28;101553.97;5073596;28;20259;-73
2023/10/17 08:31:36;;;;;;;14.53;6.37;;;;;;;5.49;95.32;101554.84;5073365;28;20243;-73
2023/10/17 08:34:11;;;;;;;8.43;6.57;;;;;;;5.50;95.40;101555.69;5073348;28;20267;-72
2023/10/17 08:36:42;;;;;;;9.57;7.03;;;;;;;5.50;95.53;101553.88;5074299;28;20216;-73
2023/10/17 08:42:05;;;;;;;12.57;7.50;;;;;;;5.56;95.60;101553.44;5073141;28;20231;-73
2023/10/17 08:44:38;;;;;;;10.20;7.57;;;;;;;5.59;95.83;101557.69;5073250;28;20229;-71
2023/10/17 08:47:07;;;;;;;10.97;6.47;;;;;;;5.60;95.47;101560.25;5073361;28;20220;-73
2023/10/17 08:49:38;;;;;;;6.87;5.87;;;;;;;5.69;96.14;101557.88;5073372;28;20233;-73
2023/10/17 08:52:07;;;;;;;11.83;7.33;;;;;;;5.69;95.84;101561.38;5073280;28;20205;-73
2023/10/17 08:54:36;;;;;;;9.83;6.20;;;;;;;5.71;96.23;101555.97;5072885;28;20225;-74
2023/10/17 08:57:07;;;;;;;45.40;8.67;;;;;;;5.65;96.77;101567.03;5073228;28;20209;-73
2023/10/17 09:00:00;;;;;;;88.33;9.57;;;;;;;5.53;96.79;101558.97;5073264;28;20198;-72
2023/10/17 09:02:32;;;;;;;10.43;6.97;;;;;;;5.68;97.90;101561.50;5073172;28;20190;-67
2023/10/17 09:05:03;;;;;;;12.27;8.83;;;;;;;5.72;97.34;101555.03;5073014;28;20237;-69
2023/10/17 09:07:42;;;;;;;23.63;8.13;;;;;;;5.70;97.66;101564.91;5072947;28;20643;-73
2023/10/17 09:10:20;;;;;;;7.57;6.70;;;;;;;5.74;98.01;101553.94;5073082;28;20598;-73
2023/10/17 09:15:48;;;;;;;38.70;8.60;;;;;;;5.83;97.32;101558.59;5072594;28;20277;-73
2023/10/17 09:18:23;;;;;;;9.03;7.53;;;;;;;5.88;97.92;101553.00;5073303;28;20220;-73
2023/10/17 09:20:52;;;;;;;10.27;7.43;;;;;;;5.95;97.96;101559.56;5073039;28;20193;-73
2023/10/17 09:23:26;;;;;;;11.97;7.27;;;;;;;5.97;98.06;101552.31;5073064;28;20232;-72
2023/10/17 09:25:56;;;;;;;8.30;7.33;;;;;;;6.00;98.23;101549.44;5072688;28;20711;-73
2023/10/17 09:28:25;;;;;;;44.77;9.40;;;;;;;6.00;97.70;101541.47;5072950;28;20233;-72
2023/10/17 09:31:03;;;;;;;17.00;12.37;;;;;;;6.05;98.21;101550.81;5072730;28;20210;-65
2023/10/17 09:33:33;;;;;;;22.70;9.00;;;;;;;6.09;97.71;101548.78;5072934;28;20201;-73
2023/10/17 09:36:04;;;;;;;14.03;8.67;;;;;;;6.13;98.19;101544.09;5074571;28;20275;-73
2023/10/17 09:38:33;;;;;;;20.73;8.13;;;;;;;6.14;97.81;101546.63;5076472;28;20213;-74
2023/10/17 09:41:02;;;;;;;29.93;8.53;;;;;;;6.10;98.02;101558.44;5076517;28;20229;-73
2023/10/17 09:43:46;;;;;;;12.03;8.93;;;;;;;6.13;98.76;101544.91;5076431;28;20267;-73
2023/10/17 09:46:18;;;;;;;10.27;8.40;;;;;;;6.19;98.75;101543.63;5076060;28;20317;-73
2023/10/17 09:48:48;;;;;;;15.63;8.13;;;;;;;6.22;98.47;101538.09;5076386;28;20190;-73
2023/10/17 09:51:21;;;;;;;46.57;10.47;;;;;;;6.21;98.13;101539.91;5076404;28;20284;-74
2023/10/17 09:53:54;;;;;;;10.87;8.93;;;;;;;6.28;99.34;101543.81;5076367;28;20217;-74
2023/10/17 09:56:27;;;;;;;10.33;9.00;;;;;;;6.32;99.51;101537.28;5075910;28;20221;-74
2023/10/17 09:59:03;;;;;;;10.80;8.97;;;;;;;6.37;98.93;101536.97;5076225;28;20190;-73
2023/10/17 10:01:35;;;;;;;12.90;9.77;;;;;;;6.40;99.40;101534.94;5076187;28;20201;-73
2023/10/17 10:04:07;;;;;;;11.43;10.07;;;;;;;6.44;99.07;101536.38;5076400;28;20247;-73
2023/10/17 10:06:39;;;;;;;20.23;9.97;;;;;;;6.45;98.53;101535.41;5076349;28;20273;-73
2023/10/17 10:09:29;;;;;;;13.63;10.93;;;;;;;6.49;98.50;101536.03;5075931;28;20601;-73
2023/10/17 10:12:01;;;;;;;13.73;11.07;;;;;;;6.52;99.21;101538.47;5076091;28;20276;-73
2023/10/17 10:14:40;;;;;;;14.07;10.23;;;;;;;6.56;98.76;101534.63;5075928;28;20275;-73
2023/10/17 10:17:13;;;;;;;16.50;11.57;;;;;;;6.57;99.15;101537.19;5075900;28;20216;-73
2023/10/17 10:20:01;;;;;;;17.27;13.33;;;;;;;6.55;99.86;101532.91;5075819;28;20255;-73
2023/10/17 10:22:52;;;;;;;19.33;13.67;;;;;;;6.59;99.96;101535.25;5075486;28;20613;-72
2023/10/17 10:25:22;;;;;;;37.33;14.57;;;;;;;6.57;98.91;101531.00;5075244;28;20238;-73
2023/10/17 10:28:29;;;;;;;24.47;15.13;;;;;;;6.54;99.89;101542.69;5075368;28;20626;-72
2023/10/17 10:30:58;;;;;;;22.47;15.20;;;;;;;6.55;100.00;101544.41;5075493;28;20217;-74
2023/10/17 10:33:30;;;;;;;20.77;14.43;;;;;;;6.62;100.00;101535.00;5075322;28;20660;-73
2023/10/17 10:36:00;;;;;;;19.13;13.83;;;;;;;6.68;100.00;101530.19;5075526;28;20229;-73
2023/10/17 10:38:30;;;;;;;21.87;15.80;;;;;;;6.73;100.00;101534.19;5075487;28;20252;-73
2023/10/17 10:41:07;;;;;;;20.63;14.47;;;;;;;6.77;100.00;101524.16;5075451;28;20185;-72
2023/10/17 10:43:37;;;;;;;26.43;18.23;;;;;;;6.73;100.00;101530.69;5075336;28;20190;-72
2023/10/17 10:46:05;;;;;;;26.03;17.03;;;;;;;6.72;100.00;101518.31;5074600;28;20225;-72
2023/10/17 10:48:34;;;;;;;22.33;15.77;;;7.80;99.90;;;6.78;100.00;101517.88;5074748;28;20644;-73
2023/10/17 10:51:04;;;;;;;25.50;18.07;;;7.80;99.90;;;6.79;100.00;101520.41;5055028;28;20205;-73
2023/10/17 10:53:36;;;;;;;25.97;18.87;;;7.80;99.90;;;6.82;100.00;101519.31;5056291;28;20206;-73
2023/10/17 10:56:09;;;;;;;24.97;18.07;;;7.90;99.90;;;6.87;100.00;101519.84;5054937;28;20226;-73
2023/10/17 10:58:47;;;;;;;34.87;19.33;;;7.90;99.90;;;6.73;99.81;101520.88;5054632;28;20201;-72
2023/10/17 11:01:18;;;;;;;29.73;18.87;;;7.70;99.90;;;6.80;100.00;101521.25;5054793;28;20222;-72
2023/10/17 11:03:48;;;;;;;28.03;18.70;;;7.70;99.90;;;6.82;100.00;101520.19;5054936;28;20208;-73
2023/10/17 11:06:24;;;;;;;25.50;17.40;;;7.80;99.90;;;6.89;100.00;101517.88;5054693;28;20230;-73
2023/10/17 11:08:55;;;;;;;21.37;17.17;;;7.90;99.90;;;6.94;100.00;101513.94;5054553;28;20197;-73
2023/10/17 11:11:24;;;;;;;27.47;19.13;;;7.90;99.90;;;6.95;100.00;101510.28;5054196;28;20201;-73
2023/10/17 11:13:56;;;;;;;28.77;17.77;;;8.00;99.90;;;6.99;100.00;101519.72;5054391;28;20618;-72
2023/10/17 11:16:26;;;;;;;24.30;17.17;;;8.00;99.90;;;7.01;99.71;101514.28;5053791;28;20222;-73
2023/10/17 11:18:55;;;;;;;26.80;18.43;;;8.00;99.90;;;7.01;100.00;101519.63;5054438;28;20201;-73
2023/10/17 11:21:25;;;;;;;28.67;21.23;;;7.90;99.90;;;7.05;100.00;101515.75;5054464;28;20293;-74
2023/10/17 11:23:59;;;;;;;27.57;18.70;;;8.00;99.90;;;7.11;100.00;101512.63;5054573;28;20206;-73
2023/10/17 11:26:32;;;;;;;26.00;17.83;;;8.10;99.90;;;7.15;100.00;101506.09;5054436;28;20237;-73
2023/10/17 11:29:03;;;;;;;24.67;18.03;;;8.20;99.90;;;7.20;99.39;101500.38;5054504;28;20273;-73
2023/10/17 11:31:33;;;;;;;25.50;17.10;;;8.20;99.90;;;7.24;99.78;101502.69;5054286;28;20225;-73
2023/10/17 11:34:04;;;;;;;25.97;18.47;;;8.20;99.90;;;7.25;98.85;101496.41;5054335;28;20230;-73
2023/10/17 11:36:46;;;;;;;25.60;16.60;;;8.20;99.90;;;7.25;99.38;101496.41;5054375;28;20268;-73
2023/10/17 11:39:15;;;;;;;23.43;16.70;;;8.20;99.90;;;7.29;99.15;101497.88;5054354;28;20271;-73
2023/10/17 11:41:48;;;;;;;22.57;15.50;;;8.20;99.90;;;7.28;98.93;101496.16;5054233;28;20202;-73
2023/10/17 11:44:23;;;;;;;21.83;15.17;;;8.30;99.90;;;7.25;98.19;101499.06;5053726;28;20267;-72
2023/10/17 11:46:58;;;;;;;20.40;14.47;;;8.20;99.90;;;7.34;98.24;101495.69;5054010;28;20210;-73
2023/10/17 11:49:32;;;;;;;20.47;14.40;;;8.20;99.90;;;7.40;98.50;101503.19;5054417;28;20201;-74
2023/10/17 11:52:02;;;;;;;15.53;13.03;;;8.30;99.90;;;7.42;96.99;101495.94;5053879;28;20186;-73
2023/10/17 11:54:31;;;;;;;20.33;14.07;;;8.40;99.90;;;7.42;96.78;101492.41;5053539;28;20640;-72
2023/10/17 11:57:13;;;;;;;16.57;12.47;;;8.40;99.90;;;7.46;97.14;101494.72;5053945;28;20187;-72
2023/10/17 12:00:06;;;;;;;15.70;12.27;;;8.50;99.90;;;7.39;95.53;101493.50;5053387;28;20190;-72
2023/10/17 12:02:41;;;;;;;15.53;12.50;;;8.30;99.90;;;7.47;96.29;101491.06;5053855;28;20722;-75
2023/10/17 12:05:17;;;;;;;14.43;12.57;;;8.40;99.90;;;7.53;96.42;101490.56;5054030;28;20314;-72
2023/10/17 12:07:49;;;;;;;16.07;12.70;;;8.60;99.90;;;7.59;95.74;101495.44;5053864;28;20248;-73
2023/10/17 12:10:17;;;;;;;15.97;12.80;;;8.60;99.90;;;7.63;95.86;101491.56;5053802;28;20190;-72
2023/10/17 12:12:45;;;;;;;13.57;11.77;;;8.60;99.90;;;7.68;96.46;101480.50;5053712;28;20206;-73
2023/10/17 12:15:20;;;;;;;15.93;12.23;;;8.60;99.90;;;7.74;96.27;101481.84;5053691;28;20230;-73
2023/10/17 12:17:49;;;;;;;13.87;11.97;;;8.70;99.90;;;7.77;95.98;101481.59;5053753;28;20200;-73
2023/10/17 12:20:19;;;;;;;15.80;12.30;;;8.70;99.90;;;7.76;95.02;101477.22;5053689;28;20577;-73
2023/10/17 12:22:47;;;;;;;16.00;12.57;;;8.90;99.90;;;7.78;95.49;101481.44;5053313;28;20676;-73
2023/10/17 12:25:16;;;;;;;16.37;13.47;;;8.70;99.90;;;7.84;95.94;101482.78;5053406;28;20222;-73
2023/10/17 12:27:49;;;;;;;18.97;13.50;;;8.80;99.90;;;7.86;95.24;101471.03;5053541;28;20212;-73
2023/10/17 12:30:25;;;;;;;16.40;13.77;;;8.80;99.90;;;7.85;94.57;101468.47;5053582;28;20273;-73
2023/10/17 12:32:55;;;;;;;18.27;13.90;;;8.70;99.90;;;7.90;95.15;101468.97;5053168;28;20275;-74
2023/10/17 12:35:23;;;;;;;18.27;14.13;;;8.90;99.90;;;7.92;95.26;101459.00;5053323;28;20229;-72
2023/10/17 12:37:52;;;;;;;15.07;12.57;;;8.90;99.90;;;7.93;94.72;101460.69;5053399;28;20206;-73
2023/10/17 12:40:21;;;;;;;15.33;13.03;;;8.80;99.90;;;7.89;93.89;101469.91;5053109;28;20557;-74
2023/10/17 12:42:51;;;;;;;14.50;12.10;;;9.00;99.90;;;7.93;94.59;101461.56;5053415;28;20202;-74
2023/10/17 12:45:21;;;;;;;19.13;13.97;;;8.90;99.90;;;7.98;94.81;101459.34;5053215;28;20229;-73
2023/10/17 12:47:50;;;;;;;14.63;11.93;;;9.00;99.90;;;8.03;94.91;101450.97;5053300;28;20271;-73
2023/10/17 12:50:19;;;;;;;15.10;12.47;;;8.90;99.90;;;7.97;93.18;101447.00;5053302;28;20206;-73
2023/10/17 12:52:47;;;;;;;16.30;12.87;;;9.00;99.90;;;7.96;92.66;101442.63;5053232;28;20276;-73
2023/10/17 12:55:19;;;;;;;17.17;13.53;;;8.90;99.90;;;8.02;92.73;101439.47;5053223;28;20237;-72
2023/10/17 12:57:47;;;;;;;16.80;13.27;;;8.90;99.90;;;8.01;92.79;101431.59;5053274;28;20269;-73
2023/10/17 13:00:16;;;;;;;14.60;11.73;;;8.90;99.90;;;8.04;93.66;101423.34;5053192;28;20206;-73
2023/10/17 13:02:47;;;;;;;15.57;12.17;;;8.90;99.90;;;8.09;93.37;101419.31;5053122;28;20217;-73
2023/10/17 13:05:15;;;;;;;18.97;11.90;;;9.00;99.90;;;8.10;93.01;101409.50;5053117;28;20226;-74
2023/10/17 13:07:44;;;;;;;12.53;11.23;;;9.10;99.90;;;8.08;91.76;101411.44;5053030;28;20226;-74
2023/10/17 13:10:12;;;;;;;13.60;11.00;;;9.10;99.90;;;8.13;92.11;101409.22;5055269;28;20585;-73
2023/10/17 13:12:40;;;;;;;13.07;11.20;;;9.10;99.90;;;8.13;91.50;101404.75;5056853;28;20635;-73